createdAt,value
2022-09-24T00:01:59.428Z,100935.56
2022-09-24T00:04:28.695Z,100934.91
2022-09-24T00:06:56.948Z,100943.00
2022-09-24T00:09:25.137Z,100926.97
2022-09-24T00:11:53.965Z,100913.84
2022-09-24T00:14:23.646Z,100898.53
2022-09-24T00:16:51.908Z,100909.69
2022-09-24T00:19:20.200Z,100771.97
2022-09-24T00:21:48.426Z,100907.38
2022-09-24T00:24:32.472Z,100900.13
2022-09-24T00:27:03.068Z,100917.31
2022-09-24T00:29:34.212Z,100928.56
2022-09-24T00:32:03.821Z,100915.47
2022-09-24T00:34:32.136Z,100911.94
2022-09-24T00:37:00.385Z,100925.56
2022-09-24T00:39:29.027Z,100930.28
2022-09-24T00:41:57.289Z,100931.97
2022-09-24T00:44:53.816Z,100929.09
2022-09-24T00:47:31.138Z,100922.22
2022-09-24T00:50:08.066Z,100931.13
2022-09-24T00:52:39.902Z,100936.34
2022-09-24T00:55:10.863Z,100927.44
2022-09-24T00:57:41.488Z,100922.03
2022-09-24T01:00:14.970Z,100936.34
2022-09-24T01:02:47.890Z,100922.88
2022-09-24T01:05:16.313Z,100904.03
2022-09-24T01:07:44.848Z,100914.13
2022-09-24T01:10:13.156Z,100907.41
2022-09-24T01:12:46.390Z,100886.72
2022-09-24T01:15:23.705Z,100846.22
2022-09-24T01:17:59.822Z,100889.19
2022-09-24T01:20:54.651Z,100876.53
2022-09-24T01:23:48.554Z,100848.44
2022-09-24T01:26:39.565Z,100863.72
2022-09-24T01:29:42.343Z,100867.63
2022-09-24T01:32:18.472Z,100855.16
2022-09-24T01:34:50.537Z,100851.78
2022-09-24T01:37:22.294Z,100866.78
2022-09-24T01:39:53.379Z,100877.38
2022-09-24T01:42:23.582Z,100858.50
2022-09-24T01:44:53.728Z,100847.72
2022-09-24T01:47:29.929Z,100847.06
2022-09-24T01:50:03.082Z,100823.50
2022-09-24T01:52:36.217Z,100820.28
2022-09-24T01:55:07.838Z,100816.94
2022-09-24T01:57:40.114Z,100801.09
2022-09-24T02:00:13.102Z,100801.28
2022-09-24T02:02:46.521Z,100745.25
2022-09-24T02:05:21.226Z,100785.63
2022-09-24T02:07:58.553Z,100792.03
2022-09-24T02:10:31.992Z,100789.34
2022-09-24T02:13:05.246Z,100776.53
2022-09-24T02:15:39.345Z,100768.63
2022-09-24T02:18:10.365Z,100762.22
2022-09-24T02:20:41.966Z,100728.63
2022-09-24T02:23:12.364Z,100750.25
2022-09-24T02:25:44.340Z,100748.22
2022-09-24T02:28:12.677Z,100750.91
2022-09-24T02:30:48.301Z,100718.00
2022-09-24T02:33:35.316Z,100743.47
2022-09-24T02:36:03.903Z,100739.75
2022-09-24T02:38:32.222Z,100737.56
2022-09-24T02:41:00.657Z,100740.25
2022-09-24T02:43:28.998Z,100739.22
2022-09-24T02:45:58.620Z,100736.53
2022-09-24T02:48:26.814Z,100739.41
2022-09-24T02:50:55.151Z,100740.91
2022-09-24T02:53:23.365Z,100733.84
2022-09-24T02:55:51.649Z,100738.38
2022-09-24T02:58:19.985Z,100723.72
2022-09-24T03:00:48.399Z,100724.00
2022-09-24T03:03:18.015Z,100721.31
2022-09-24T03:05:47.182Z,100731.25
2022-09-24T03:08:15.401Z,100733.78
2022-09-24T03:10:43.573Z,100739.34
2022-09-24T03:13:12.182Z,100732.09
2022-09-24T03:15:40.558Z,100692.53
2022-09-24T03:18:08.762Z,100730.25
2022-09-24T03:20:39.977Z,100734.63
2022-09-24T03:23:08.440Z,100726.78
2022-09-24T03:25:36.685Z,100747.44
2022-09-24T03:28:04.983Z,100719.09
2022-09-24T03:30:50.620Z,100756.56
2022-09-24T03:33:18.971Z,100758.59
2022-09-24T03:35:48.568Z,100746.97
2022-09-24T03:38:16.860Z,100748.63
2022-09-24T03:40:45.062Z,100760.63
2022-09-24T03:43:13.435Z,100758.75
2022-09-24T03:45:41.664Z,100751.03
2022-09-24T03:48:09.910Z,100750.31
2022-09-24T03:50:38.701Z,100752.00
2022-09-24T03:53:08.495Z,100748.63
2022-09-24T03:55:37.005Z,100735.63
2022-09-24T03:58:05.272Z,100765.72
2022-09-24T04:00:36.408Z,100768.56
2022-09-24T04:03:08.623Z,100763.19
2022-09-24T04:05:37.393Z,100773.31
2022-09-24T04:08:06.346Z,100766.72
2022-09-24T04:10:35.887Z,100765.03
2022-09-24T04:13:04.348Z,100742.69
2022-09-24T04:15:33.897Z,100757.13
2022-09-24T04:18:02.224Z,100757.13
2022-09-24T04:20:31.157Z,100750.25
2022-09-24T04:23:00.473Z,100720.56
2022-09-24T04:25:31.536Z,100696.25
2022-09-24T04:28:03.219Z,100757.31
2022-09-24T04:30:32.651Z,100763.72
2022-09-24T04:33:02.621Z,100767.44
2022-09-24T04:35:33.004Z,100769.28
2022-09-24T04:38:01.389Z,100758.50
2022-09-24T04:40:30.091Z,100769.28
2022-09-24T04:43:00.183Z,100771.31
2022-09-24T04:45:28.478Z,100767.13
2022-09-24T04:47:58.016Z,100768.97
2022-09-24T04:50:28.822Z,100768.53
2022-09-24T04:52:57.414Z,100771.38
2022-09-24T04:55:26.218Z,100768.00
2022-09-24T04:57:57.321Z,100743.47
2022-09-24T05:00:27.018Z,100761.94
2022-09-24T05:02:59.666Z,100761.97
2022-09-24T05:05:28.348Z,100770.69
2022-09-24T05:07:58.432Z,100770.69
2022-09-24T05:10:27.542Z,100779.97
2022-09-24T05:12:55.841Z,100777.78
2022-09-24T05:15:24.099Z,100778.13
2022-09-24T05:17:53.841Z,100777.09
2022-09-24T05:20:22.041Z,100780.81
2022-09-24T05:22:50.889Z,100775.25
2022-09-24T05:25:21.421Z,100775.25
2022-09-24T05:27:50.427Z,100777.94
2022-09-24T05:30:19.934Z,100770.91
2022-09-24T05:32:49.644Z,100772.56
2022-09-24T05:35:19.751Z,100778.28
2022-09-24T05:37:49.741Z,100772.75
2022-09-24T05:40:35.581Z,100792.59
2022-09-24T05:43:05.793Z,100762.38
2022-09-24T05:45:34.357Z,100794.63
2022-09-24T05:48:03.135Z,100787.56
2022-09-24T05:50:35.093Z,100793.63
2022-09-24T05:53:04.014Z,100759.41
2022-09-24T05:55:32.892Z,100795.66
2022-09-24T05:58:06.784Z,100800.03
2022-09-24T06:00:36.093Z,100803.72
2022-09-24T06:03:07.976Z,100807.94
2022-09-24T06:05:37.840Z,100807.59
2022-09-24T06:08:08.773Z,100800.25
2022-09-24T06:10:37.697Z,100794.53
2022-09-24T06:13:06.336Z,100797.53
2022-09-24T06:15:36.159Z,100810.22
2022-09-24T06:18:04.457Z,100805.00
2022-09-24T06:20:33.609Z,100804.16
2022-09-24T06:23:03.612Z,100799.59
2022-09-24T06:25:32.268Z,100766.53
2022-09-24T06:28:02.107Z,100809.06
2022-09-24T06:30:31.447Z,100775.47
2022-09-24T06:33:05.203Z,100812.59
2022-09-24T06:35:35.329Z,100807.88
2022-09-24T06:38:06.637Z,100803.13
2022-09-24T06:40:37.348Z,100777.44
2022-09-24T06:43:06.852Z,100808.53
2022-09-24T06:45:36.254Z,100811.72
2022-09-24T06:48:06.608Z,100817.59
2022-09-24T06:50:36.088Z,100806.66
2022-09-24T06:53:08.913Z,100810.81
2022-09-24T06:55:37.848Z,100818.75
2022-09-24T06:58:07.705Z,100781.91
2022-09-24T07:00:37.226Z,100799.56
2022-09-24T07:03:05.981Z,100817.66
2022-09-24T07:05:38.323Z,100818.13
2022-09-24T07:08:10.871Z,100814.41
2022-09-24T07:10:39.777Z,100823.66
2022-09-24T07:13:07.994Z,100829.72
2022-09-24T07:15:36.278Z,100828.88
2022-09-24T07:18:04.751Z,100835.94
2022-09-24T07:20:34.169Z,100833.72
2022-09-24T07:23:02.424Z,100826.31
2022-09-24T07:25:32.507Z,100827.97
2022-09-24T07:28:05.272Z,100817.19
2022-09-24T07:30:33.989Z,100825.47
2022-09-24T07:33:02.453Z,100831.69
2022-09-24T07:35:31.253Z,100827.97
2022-09-24T07:38:01.445Z,100822.69
2022-09-24T07:40:32.873Z,100831.91
2022-09-24T07:43:01.856Z,100824.47
2022-09-24T07:45:31.611Z,100827.00
2022-09-24T07:48:01.718Z,100827.47
2022-09-24T07:50:31.565Z,100837.56
2022-09-24T07:53:00.639Z,100839.53
2022-09-24T07:55:28.989Z,100832.91
2022-09-24T07:57:58.691Z,100832.00
2022-09-24T08:00:26.902Z,100829.63
2022-09-24T08:02:56.622Z,100824.16
2022-09-24T08:05:33.038Z,100830.66
2022-09-24T08:08:01.577Z,100823.41
2022-09-24T08:10:30.055Z,100824.72
2022-09-24T08:13:02.816Z,100819.13
2022-09-24T08:15:31.493Z,100824.28
2022-09-24T08:18:03.539Z,100810.69
2022-09-24T08:20:32.822Z,100813.56
2022-09-24T08:23:03.081Z,100819.81
2022-09-24T08:25:31.983Z,100818.94
2022-09-24T08:28:04.611Z,100824.63
2022-09-24T08:30:33.592Z,100824.59
2022-09-24T08:33:01.873Z,100838.41
2022-09-24T08:35:30.169Z,100840.69
2022-09-24T08:38:00.686Z,100840.78
2022-09-24T08:40:32.680Z,100841.13
2022-09-24T08:43:10.539Z,100841.00
2022-09-24T08:46:03.117Z,100851.88
2022-09-24T08:48:37.206Z,100862.19
2022-09-24T08:51:09.618Z,100848.69
2022-09-24T08:53:48.761Z,100855.06
2022-09-24T08:56:22.202Z,100845.13
2022-09-24T08:58:57.999Z,100854.81
2022-09-24T09:01:36.945Z,100848.41
2022-09-24T09:04:20.249Z,100843.44
2022-09-24T09:07:06.431Z,100848.38
2022-09-24T09:09:44.433Z,100853.34
2022-09-24T09:12:17.234Z,100844.59
2022-09-24T09:14:52.133Z,100836.69
2022-09-24T09:17:36.099Z,100802.53
2022-09-24T09:20:09.084Z,100844.66
2022-09-24T09:22:44.585Z,100848.50
2022-09-24T09:25:20.558Z,100848.16
2022-09-24T09:27:52.866Z,100849.47
2022-09-24T09:30:23.240Z,100840.38
2022-09-24T09:33:09.318Z,100840.41
2022-09-24T09:35:45.643Z,100843.16
2022-09-24T09:38:24.105Z,100834.41
2022-09-24T09:41:00.982Z,100834.19
2022-09-24T09:43:29.379Z,100842.69
2022-09-24T09:46:08.873Z,100837.34
2022-09-24T09:48:45.980Z,100840.25
2022-09-24T09:51:22.775Z,100800.66
2022-09-24T09:53:58.704Z,100844.50
2022-09-24T09:56:30.014Z,100838.25
2022-09-24T09:59:09.917Z,100843.53
2022-09-24T10:01:41.901Z,100854.81
2022-09-24T10:04:30.177Z,100845.22
2022-09-24T10:07:06.777Z,100841.91
2022-09-24T10:09:35.278Z,100844.06
2022-09-24T10:12:16.217Z,100836.22
2022-09-24T10:14:45.529Z,100832.53
2022-09-24T10:17:20.581Z,100827.56
2022-09-24T10:19:51.018Z,100829.03
2022-09-24T10:22:23.418Z,100831.75
2022-09-24T10:24:52.826Z,100824.91
2022-09-24T10:27:30.379Z,100814.50
2022-09-24T10:30:17.073Z,100810.56
2022-09-24T10:32:48.843Z,100807.25
2022-09-24T10:35:27.765Z,100806.50
2022-09-24T10:37:58.075Z,100803.41
2022-09-24T10:40:31.097Z,100777.31
2022-09-24T10:43:01.976Z,100800.72
2022-09-24T10:46:06.820Z,100790.75
2022-09-24T10:48:44.625Z,100784.28
2022-09-24T10:51:29.137Z,100782.63
2022-09-24T10:54:16.819Z,100788.44
2022-09-24T10:56:51.833Z,100782.16
2022-09-24T10:59:45.639Z,100786.94
2022-09-24T11:02:34.593Z,100778.53
2022-09-24T11:05:10.311Z,100773.88
2022-09-24T11:07:55.730Z,100757.50
2022-09-24T11:10:37.168Z,100765.66
2022-09-24T11:13:17.859Z,100760.63
2022-09-24T11:16:16.755Z,100767.94
2022-09-24T11:18:57.717Z,100771.72
2022-09-24T11:21:49.756Z,100770.44
2022-09-24T11:24:54.729Z,100776.09
2022-09-24T11:27:43.102Z,100769.44
2022-09-24T11:30:14.462Z,100775.06
2022-09-24T11:33:03.919Z,100789.28
2022-09-24T11:35:46.080Z,100773.38
2022-09-24T11:41:17.041Z,100774.25
2022-09-24T11:44:23.673Z,100759.06
2022-09-24T11:47:06.887Z,100754.00
2022-09-24T11:49:49.770Z,100744.50
2022-09-24T11:52:29.219Z,100737.75
2022-09-24T11:55:06.030Z,100711.00
2022-09-24T11:57:38.721Z,100735.59
2022-09-24T12:00:13.906Z,100702.38
2022-09-24T12:02:45.140Z,100730.94
2022-09-24T12:05:21.634Z,100731.78
2022-09-24T12:07:55.235Z,100728.44
2022-09-24T12:10:34.764Z,100736.38
2022-09-24T12:13:13.594Z,100739.06
2022-09-24T12:15:49.057Z,100730.00
2022-09-24T12:18:22.558Z,100723.66
2022-09-24T12:20:54.330Z,100722.34
2022-09-24T12:23:28.306Z,100715.63
2022-09-24T12:25:59.635Z,100709.34
2022-09-24T12:28:51.845Z,100708.59
2022-09-24T12:31:44.946Z,100711.09
2022-09-24T12:34:20.673Z,100709.66
2022-09-24T12:36:59.106Z,100634.63
2022-09-24T12:39:33.934Z,100706.22
2022-09-24T12:42:08.038Z,100694.72
2022-09-24T12:44:43.361Z,100693.38
2022-09-24T12:47:21.703Z,100698.81
2022-09-24T12:49:55.701Z,100695.94
2022-09-24T12:52:28.487Z,100679.34
2022-09-24T12:55:00.605Z,100686.53
2022-09-24T12:57:33.951Z,100687.75
2022-09-24T13:00:04.303Z,100678.69
2022-09-24T13:02:46.353Z,100665.91
2022-09-24T13:05:28.389Z,100667.03
2022-09-24T13:08:00.101Z,100649.47
2022-09-24T13:10:31.077Z,100649.84
2022-09-24T13:13:01.880Z,100628.28
2022-09-24T13:15:35.943Z,100648.00
2022-09-24T13:18:19.940Z,100646.03
2022-09-24T13:21:00.917Z,100647.19
2022-09-24T13:23:46.563Z,100642.09
2022-09-24T13:26:27.837Z,100639.22
2022-09-24T13:28:59.305Z,100643.63
2022-09-24T13:31:35.118Z,100643.63
2022-09-24T13:34:14.057Z,100639.91
2022-09-24T13:36:47.089Z,100640.50
2022-09-24T13:39:20.176Z,100655.56
2022-09-24T13:41:56.497Z,100649.69
2022-09-24T13:44:31.519Z,100647.91
2022-09-24T13:47:03.888Z,100641.41
2022-09-24T13:49:35.075Z,100647.84
2022-09-24T13:52:14.894Z,100633.91
2022-09-24T13:54:53.353Z,100626.78
2022-09-24T13:57:24.792Z,100632.59
2022-09-24T14:00:15.397Z,100625.94
2022-09-24T14:02:46.421Z,100622.91
2022-09-24T14:05:18.731Z,100599.78
2022-09-24T14:07:56.197Z,100613.44
2022-09-24T14:10:25.057Z,100621.84
2022-09-24T14:13:03.375Z,100621.47
2022-09-24T14:15:33.108Z,100624.91
2022-09-24T14:18:01.508Z,100611.59
2022-09-24T14:20:34.562Z,100616.97
2022-09-24T14:23:05.211Z,100608.47
2022-09-24T14:25:37.949Z,100602.03
2022-09-24T14:28:06.974Z,100601.59
2022-09-24T14:30:40.524Z,100604.16
2022-09-24T14:33:16.426Z,100596.03
2022-09-24T14:35:48.428Z,100603.16
2022-09-24T14:38:23.701Z,100592.50
2022-09-24T14:40:56.887Z,100584.53
2022-09-24T14:43:31.554Z,100586.03
2022-09-24T14:46:07.596Z,100582.50
2022-09-24T14:48:36.780Z,100590.88
2022-09-24T14:51:05.477Z,100595.97
2022-09-24T14:53:38.304Z,100589.97
2022-09-24T14:56:21.261Z,100580.22
2022-09-24T14:58:49.692Z,100587.81
2022-09-24T15:01:22.555Z,100584.03
2022-09-24T15:03:53.296Z,100587.47
2022-09-24T15:06:28.021Z,100590.25
2022-09-24T15:09:00.737Z,100596.13
2022-09-24T15:11:31.585Z,100467.88
2022-09-24T15:14:02.449Z,100497.19
2022-09-24T15:16:34.674Z,100581.75
2022-09-24T15:19:17.557Z,100594.47
2022-09-24T15:21:46.365Z,100591.13
2022-09-24T15:24:14.597Z,100587.78
2022-09-24T15:26:45.337Z,100566.53
2022-09-24T15:29:20.733Z,100581.91
2022-09-24T15:31:50.698Z,100578.78
2022-09-24T15:34:20.233Z,100590.94
2022-09-24T15:36:49.571Z,100577.75
2022-09-24T15:39:20.487Z,100590.75
2022-09-24T15:41:48.946Z,100586.22
2022-09-24T15:44:22.664Z,100583.94
2022-09-24T15:46:54.209Z,100575.38
2022-09-24T15:49:24.281Z,100575.59
2022-09-24T15:51:57.255Z,100583.63
2022-09-24T15:54:25.561Z,100582.03
2022-09-24T15:56:55.004Z,100587.69
2022-09-24T15:59:24.673Z,100589.84
2022-09-24T16:01:58.420Z,100601.78
2022-09-24T16:04:26.902Z,100595.09
2022-09-24T16:06:55.124Z,100595.97
2022-09-24T16:09:25.869Z,100591.44
2022-09-24T16:11:57.895Z,100600.22
2022-09-24T16:14:26.234Z,100592.50
2022-09-24T16:16:57.365Z,100594.59
2022-09-24T16:19:26.131Z,100584.59
2022-09-24T16:21:55.080Z,100583.38
2022-09-24T16:24:23.672Z,100585.91
2022-09-24T16:26:51.893Z,100576.94
2022-09-24T16:29:20.619Z,100586.13
2022-09-24T16:31:49.595Z,100584.47
2022-09-24T16:34:19.300Z,100586.13
2022-09-24T16:36:48.564Z,100581.97
2022-09-24T16:39:16.953Z,100580.94
2022-09-24T16:41:45.344Z,100591.19
2022-09-24T16:44:15.272Z,100588.69
2022-09-24T16:46:43.985Z,100590.16
2022-09-24T16:49:12.636Z,100597.09
2022-09-24T16:51:42.336Z,100592.91
2022-09-24T16:54:12.145Z,100605.03
2022-09-24T16:56:43.039Z,100602.97
2022-09-24T16:59:12.014Z,100607.34
2022-09-24T17:01:42.636Z,100607.16
2022-09-24T17:04:11.254Z,100595.50
2022-09-24T17:06:40.487Z,100594.88
2022-09-24T17:09:28.699Z,100484.56
2022-09-24T17:11:57.483Z,100597.56
2022-09-24T17:14:25.976Z,100598.41
2022-09-24T17:16:54.336Z,100600.75
2022-09-24T17:19:22.676Z,100611.19
2022-09-24T17:21:51.272Z,100621.63
2022-09-24T17:24:21.988Z,100605.97
2022-09-24T17:26:50.672Z,100603.66
2022-09-24T17:29:20.848Z,100605.34
2022-09-24T17:31:49.332Z,100607.63
2022-09-24T17:34:17.977Z,100578.84
2022-09-24T17:36:46.303Z,100617.25
2022-09-24T17:39:15.306Z,100627.06
2022-09-24T17:41:45.003Z,100628.72
2022-09-24T17:44:14.786Z,100626.41
2022-09-24T17:46:43.133Z,100621.81
2022-09-24T17:49:12.114Z,100627.44
2022-09-24T17:51:40.648Z,100625.34
2022-09-24T17:54:12.222Z,100597.81
2022-09-24T17:56:41.081Z,100627.88
2022-09-24T17:59:12.810Z,100637.03
2022-09-24T18:01:43.021Z,100638.91
2022-09-24T18:04:13.564Z,100628.06
2022-09-24T18:06:43.309Z,100631.63
2022-09-24T18:09:13.003Z,100639.13
2022-09-24T18:11:42.961Z,100645.41
2022-09-24T18:14:16.957Z,100622.78
2022-09-24T18:16:46.363Z,100638.44
2022-09-24T18:19:17.224Z,100660.19
2022-09-24T18:21:46.023Z,100654.13
2022-09-24T18:24:14.634Z,100658.72
2022-09-24T18:26:43.226Z,100661.56
2022-09-24T18:29:16.652Z,100661.78
2022-09-24T18:31:45.610Z,100661.56
2022-09-24T18:34:15.402Z,100664.69
2022-09-24T18:36:45.350Z,100511.56
2022-09-24T18:39:21.952Z,100557.06
2022-09-24T18:41:52.296Z,100663.38
2022-09-24T18:44:22.011Z,100661.50
2022-09-24T18:46:50.575Z,100657.75
2022-09-24T18:49:19.525Z,100658.81
2022-09-24T18:51:49.045Z,100658.56
2022-09-24T18:54:18.428Z,100662.31
2022-09-24T18:56:47.480Z,100669.59
2022-09-24T18:59:18.222Z,100682.31
2022-09-24T19:01:49.467Z,100686.47
2022-09-24T19:04:18.646Z,100688.97
2022-09-24T19:06:49.944Z,100670.72
2022-09-24T19:09:18.848Z,100690.56
2022-09-24T19:11:49.087Z,100704.69
2022-09-24T19:14:18.594Z,100709.69
2022-09-24T19:16:50.313Z,100696.72
2022-09-24T19:19:18.552Z,100688.78
2022-09-24T19:21:47.055Z,100694.81
2022-09-24T19:24:15.334Z,100697.50
2022-09-24T19:26:43.713Z,100698.78
2022-09-24T19:29:12.181Z,100693.75
2022-09-24T19:31:42.525Z,100663.84
2022-09-24T19:34:14.642Z,100687.06
2022-09-24T19:36:44.837Z,100661.34
2022-09-24T19:39:15.667Z,100692.88
2022-09-24T19:41:44.331Z,100692.81
2022-09-24T19:44:13.690Z,100701.94
2022-09-24T19:46:43.936Z,100700.28
2022-09-24T19:49:13.857Z,100713.00
2022-09-24T19:51:42.035Z,100713.19
2022-09-24T19:54:11.663Z,100713.00
2022-09-24T19:56:40.167Z,100703.00
2022-09-24T19:59:09.641Z,100709.25
2022-09-24T20:01:38.364Z,100708.81
2022-09-24T20:04:08.420Z,100701.47
2022-09-24T20:06:39.516Z,100675.16
2022-09-24T20:09:08.340Z,100706.53
2022-09-24T20:11:37.011Z,100709.25
2022-09-24T20:14:09.130Z,100704.44
2022-09-24T20:16:38.422Z,100711.47
2022-09-24T20:19:06.978Z,100716.81
2022-09-24T20:21:38.761Z,100719.94
2022-09-24T20:24:08.667Z,100727.59
2022-09-24T20:26:55.253Z,100724.66
2022-09-24T20:29:24.152Z,100725.63
2022-09-24T20:31:55.641Z,100729.56
2022-09-24T20:34:33.866Z,100735.16
2022-09-24T20:37:05.743Z,100731.34
2022-09-24T20:39:35.174Z,100736.31
2022-09-24T20:42:06.009Z,100732.50
2022-09-24T20:44:34.872Z,100731.06
2022-09-24T20:47:03.104Z,100740.97
2022-09-24T20:49:33.300Z,100742.09
2022-09-24T20:52:03.502Z,100738.94
2022-09-24T20:54:31.786Z,100742.94
2022-09-24T20:57:01.021Z,100740.06
2022-09-24T20:59:29.967Z,100738.00
2022-09-24T21:01:58.413Z,100738.84
2022-09-24T21:04:27.150Z,100738.84
2022-09-24T21:06:55.853Z,100738.09
2022-09-24T21:09:25.563Z,100736.44
2022-09-24T21:11:54.548Z,100737.03
2022-09-24T21:14:23.460Z,100745.69
2022-09-24T21:16:54.237Z,100741.03
2022-09-24T21:19:22.556Z,100730.78
2022-09-24T21:21:52.282Z,100729.28
2022-09-24T21:24:20.761Z,100726.78
2022-09-24T21:26:50.342Z,100738.06
2022-09-24T21:29:21.830Z,100732.72
2022-09-24T21:31:50.273Z,100735.25
2022-09-24T21:34:20.859Z,100731.50
2022-09-24T21:36:49.714Z,100731.44
2022-09-24T21:39:19.687Z,100725.28
2022-09-24T21:41:51.408Z,100729.00
2022-09-24T21:44:20.439Z,100729.38
2022-09-24T21:46:52.801Z,100722.50
2022-09-24T21:49:22.985Z,100725.47
2022-09-24T21:51:52.590Z,100715.00
2022-09-24T21:54:21.022Z,100710.91
2022-09-24T21:56:50.906Z,100708.97
2022-09-24T21:59:36.944Z,100702.25
2022-09-24T22:02:05.776Z,100714.13
2022-09-24T22:04:34.020Z,100711.13
2022-09-24T22:07:02.666Z,100711.13
2022-09-24T22:09:32.012Z,100707.97
2022-09-24T22:12:02.524Z,100704.44
2022-09-24T22:14:31.099Z,100698.75
2022-09-24T22:16:59.479Z,100705.34
2022-09-24T22:19:27.792Z,100704.25
2022-09-24T22:21:56.004Z,100689.75
2022-09-24T22:24:24.351Z,100697.66
2022-09-24T22:26:54.124Z,100696.69
2022-09-24T22:29:24.015Z,100694.06
2022-09-24T22:31:52.317Z,100700.22
2022-09-24T22:34:37.808Z,100698.44
2022-09-24T22:37:07.690Z,100697.03
2022-09-24T22:39:36.453Z,100703.16
2022-09-24T22:42:05.189Z,100693.13
2022-09-24T22:44:35.150Z,100691.91
2022-09-24T22:47:03.387Z,100689.41
2022-09-24T22:49:32.778Z,100685.03
2022-09-24T22:52:01.007Z,100689.09
2022-09-24T22:54:29.493Z,100687.50
2022-09-24T22:56:57.746Z,100673.22
2022-09-24T22:59:26.073Z,100674.81
2022-09-24T23:01:55.665Z,100676.88
2022-09-24T23:04:24.224Z,100668.47
2022-09-24T23:06:52.797Z,100669.84
2022-09-24T23:09:21.796Z,100658.13
2022-09-24T23:11:50.092Z,100666.28
2022-09-24T23:14:18.576Z,100666.78
2022-09-24T23:16:46.953Z,100677.38
2022-09-24T23:19:20.273Z,100676.91
2022-09-24T23:21:48.581Z,100671.91
2022-09-24T23:24:18.691Z,100678.22
2022-09-24T23:26:48.463Z,100663.66
2022-09-24T23:29:17.339Z,100683.13
2022-09-24T23:31:45.794Z,100677.44
2022-09-24T23:34:15.025Z,100679.63
2022-09-24T23:36:46.627Z,100688.06
2022-09-24T23:39:15.229Z,100680.81
2022-09-24T23:41:43.512Z,100683.53
2022-09-24T23:44:12.070Z,100679.84
2022-09-24T23:46:41.566Z,100685.41
2022-09-24T23:49:10.329Z,100681.44
2022-09-24T23:51:38.825Z,100682.63
2022-09-24T23:54:08.856Z,100685.50
2022-09-24T23:56:37.233Z,100688.53
2022-09-24T23:59:05.637Z,100698.31
